Time;durP1;ratioP1;P1;durP2;ratioP2;P2;SDS_P1;SDS_P2;PMS_P1;PMS_P2;Temp;Humidity;BMP_temperature;BMP_pressure;BME280_temperature;BME280_humidity;BME280_pressure;Samples;Min_cycle;Max_cycle;Signal;HPM_P1;HPM_P2
2022/01/22 00:02:11;;;;;;;;;;;;;;;;;;5086615;28;20665;-87
2022/01/22 00:04:37;;;;;;;;;;;;;;;;;;5088387;28;19970;-88
2022/01/22 00:07:04;;;;;;;;;;;;;;;;;;5087283;28;19955;-86
2022/01/22 00:09:36;;;;;;;;;;;;;;;;;;5087196;28;20032;-85
2022/01/22 00:12:02;;;;;;;;;;;;;;;;;;5086596;28;19989;-84
2022/01/22 00:14:28;;;;;;;;;;;;;;;;;;5065438;28;19951;-85
2022/01/22 00:16:55;;;;;;;;;;;;;;;;;;5065868;28;20040;-85
2022/01/22 00:19:21;;;;;;;;;;;;;;;;;;5089833;28;19963;-86
2022/01/22 00:21:47;;;;;;;;;;;;;;;;;;5080855;28;19958;-85
2022/01/22 00:24:14;;;;;;;;;;;;;;;;;;5091375;28;19959;-84
2022/01/22 00:26:40;;;;;;;;;;;;;;;;;;5085143;28;20966;-85
2022/01/22 00:29:06;;;;;;;;;;;;;;;;;;5069284;28;19967;-84
2022/01/22 00:31:32;;;;;;;;;;;;;;;;;;5050213;28;19941;-82
2022/01/22 00:33:58;;;;;;;;;;;;;;;;;;5085729;28;20437;-87
2022/01/22 00:36:25;;;;;;;;;;;;;;;;;;5087406;28;19947;-85
2022/01/22 00:38:51;;;;;;;;;;;;;;;;;;5057745;28;20497;-85
2022/01/22 00:41:17;;;;;;;;;;;;;;;;;;5083457;28;20033;-85
2022/01/22 00:43:43;;;;;;;;;;;;;;;;;;5082763;28;20004;-85
2022/01/22 00:46:09;;;;;;;;;;;;;;;;;;5089082;28;19947;-85
2022/01/22 00:48:36;;;;;;;;;;;;;;;;;;5086598;28;20500;-85
2022/01/22 00:51:02;;;;;;;;;;;;;;;;;;5087936;28;19971;-85
2022/01/22 00:53:28;;;;;;;;;;;;;;;;;;5065142;28;19944;-85
2022/01/22 00:55:54;;;;;;;;;;;;;;;;;;5086101;28;19967;-85
2022/01/22 00:58:23;;;;;;;;;;;;;;;;;;5088060;28;19917;-86
2022/01/22 01:00:49;;;;;;;;;;;;;;;;;;5080040;28;19952;-86
2022/01/22 01:03:16;;;;;;;;;;;;;;;;;;5085124;28;19967;-86
2022/01/22 01:05:42;;;;;;;;;;;;;;;;;;5084795;28;19955;-86
2022/01/22 01:08:08;;;;;;;;;;;;;;;;;;5087626;28;19958;-86
2022/01/22 01:10:34;;;;;;;;;;;;;;;;;;5083772;28;19951;-86
2022/01/22 01:13:00;;;;;;;;;;;;;;;;;;5085610;28;20367;-86
2022/01/22 01:34:24;;;;;;;;;;;;;;;;;;5086740;28;20494;-89
2022/01/22 01:36:50;;;;;;;;;;;;;;;;;;5088766;28;19981;-86
2022/01/22 01:39:21;;;;;;;;;;;;;;;;;;5085383;28;19962;-87
2022/01/22 01:44:14;;;;;;;;;;;;;;;;;;5083869;28;19992;-86
2022/01/22 01:46:40;;;;;;;;;;;;;;;;;;5085002;28;19912;-89
2022/01/22 01:49:06;;;;;;;;;;;;;;;;;;5086772;28;19991;-86
2022/01/22 01:51:34;;;;;;;;;;;;;;;;;;5082553;28;20670;-85
2022/01/22 01:54:23;;;;;;;;;;;;;;;;;;5084094;28;22357;-85
2022/01/22 01:59:34;;;;;;;;;;;;;;;;;;5084751;28;19968;-84
2022/01/22 02:02:00;;;;;;;;;;;;;;;;;;5084577;28;20384;-85
2022/01/22 02:04:26;;;;;;;;;;;;;;;;;;5080839;28;20385;-85
2022/01/22 02:06:53;;;;;;;;;;;;;;;;;;5088160;28;19952;-85
2022/01/22 02:09:19;;;;;;;;;;;;;;;;;;5084682;28;20016;-85
2022/01/22 02:11:46;;;;;;;;;;;;;;;;;;5087302;28;20039;-84
2022/01/22 02:25:22;;;;;;;;;;;;;;;;;;5064134;28;19916;-89
2022/01/22 02:27:49;;;;;;;;;;;;;;;;;;5089085;28;19981;-88
2022/01/22 02:30:21;;;;;;;;;;;;;;;;;;5088386;28;19959;-88
2022/01/22 02:35:27;;;;;;;;;;;;;;;;;;5086374;28;19989;-88
2022/01/22 02:38:06;;;;;;;;;;;;;;;;;;5086027;28;19955;-89
2022/01/22 02:40:42;;;;;;;;;;;;;;;;;;5087865;28;19960;-84
2022/01/22 02:43:12;;;;;;;;;;;;;;;;;;5079377;28;20143;-89
2022/01/22 02:45:38;;;;;;;;;;;;;;;;;;5089222;28;19939;-91
2022/01/22 02:48:04;;;;;;;;;;;;;;;;;;5068577;28;20568;-90
2022/01/22 02:50:30;;;;;;;;;;;;;;;;;;5070257;28;19927;-91
2022/01/22 02:52:57;;;;;;;;;;;;;;;;;;5088793;28;19951;-87
2022/01/22 02:55:23;;;;;;;;;;;;;;;;;;5089139;28;19959;-87
2022/01/22 02:57:49;;;;;;;;;;;;;;;;;;5087918;28;19948;-86
2022/01/22 03:00:17;;;;;;;;;;;;;;;;;;5087988;28;19916;-86
2022/01/22 03:02:43;;;;;;;;;;;;;;;;;;5085227;28;19944;-86
2022/01/22 03:05:09;;;;;;;;;;;;;;;;;;5083887;28;19952;-86
2022/01/22 03:07:36;;;;;;;;;;;;;;;;;;5086550;28;20001;-85
2022/01/22 03:10:04;;;;;;;;;;;;;;;;;;5081785;28;20003;-86
2022/01/22 03:17:56;;;;;;;;;;;;;;;;;;5085177;28;19996;-88
2022/01/22 03:28:23;;;;;;;;;;;;;;;;;;5085241;28;19920;-86
2022/01/22 03:30:49;;;;;;;;;;;;;;;;;;5084650;28;20021;-84
2022/01/22 03:33:19;;;;;;;;;;;;;;;;;;5085897;28;19972;-84
2022/01/22 03:35:50;;;;;;;;;;;;;;;;;;5083808;28;19955;-85
2022/01/22 03:38:16;;;;;;;;;;;;;;;;;;5087978;28;19951;-84
2022/01/22 03:40:48;;;;;;;;;;;;;;;;;;5082031;28;19958;-84
2022/01/22 03:43:15;;;;;;;;;;;;;;;;;;5084543;28;19955;-85
2022/01/22 03:45:41;;;;;;;;;;;;;;;;;;5065725;28;20328;-87
2022/01/22 03:48:07;;;;;;;;;;;;;;;;;;5087133;28;19912;-85
2022/01/22 03:50:33;;;;;;;;;;;;;;;;;;5087428;28;19992;-79
2022/01/22 03:52:59;;;;;;;;;;;;;;;;;;5085786;28;19951;-86
2022/01/22 03:55:48;;;;;;;;;;;;;;;;;;5084949;28;19959;-86
2022/01/22 03:58:14;;;;;;;;;;;;;;;;;;5064973;28;19947;-86
2022/01/22 04:00:40;;;;;;;;;;;;;;;;;;5084218;28;19951;-85
2022/01/22 04:06:15;;;;;;;;;;;;;;;;;;5081623;28;19948;-85
2022/01/22 04:08:40;;;;;;;;;;;;;;;;;;5083941;28;19959;-85
2022/01/22 04:11:11;;;;;;;;;;;;;;;;;;5085260;28;19982;-85
2022/01/22 04:13:38;;;;;;;;;;;;;;;;;;5085676;28;20025;-85
2022/01/22 04:16:04;;;;;;;;;;;;;;;;;;5085133;28;19967;-87
2022/01/22 04:29:18;;;;;;;;;;;;;;;;;;5083616;28;19961;-83
2022/01/22 04:31:44;;;;;;;;;;;;;;;;;;5084299;28;19952;-85
2022/01/22 04:34:11;;;;;;;;;;;;;;;;;;5085925;28;20078;-84
2022/01/22 04:36:37;;;;;;;;;;;;;;;;;;5083260;28;19963;-83
2022/01/22 04:39:03;;;;;;;;;;;;;;;;;;5085504;28;19951;-85
2022/01/22 04:41:29;;;;;;;;;;;;;;;;;;5086822;28;19963;-85
2022/01/22 04:44:00;;;;;;;;;;;;;;;;;;5061442;28;20013;-85
2022/01/22 04:46:48;;;;;;;;;;;;;;;;;;5086563;28;19955;-86
2022/01/22 04:52:27;;;;;;;;;;;;;;;;;;5085117;28;21265;-88
2022/01/22 04:55:02;;;;;;;;;;;;;;;;;;5082761;28;19951;-84
2022/01/22 04:57:28;;;;;;;;;;;;;;;;;;5080801;28;20044;-85
2022/01/22 04:59:54;;;;;;;;;;;;;;;;;;5086339;28;19985;-87
2022/01/22 05:02:21;;;;;;;;;;;;;;;;;;5086881;28;20381;-86
2022/01/22 05:04:47;;;;;;;;;;;;;;;;;;5080683;28;20003;-87
2022/01/22 05:07:13;;;;;;;;;;;;;;;;;;5080766;28;20375;-84
2022/01/22 05:09:39;;;;;;;;;;;;;;;;;;5082424;28;20003;-85
2022/01/22 05:12:06;;;;;;;;;;;;;;;;;;5083496;28;19951;-85
2022/01/22 05:14:32;;;;;;;;;;;;;;;;;;5092914;28;20019;-85
2022/01/22 05:17:00;;;;;;;;;;;;;;;;;;5084695;28;19963;-85
2022/01/22 05:19:45;;;;;;;;;;;;;;;;;;5086299;28;20377;-85
2022/01/22 05:22:42;;;;;;;;;;;;;;;;;;5082109;28;20946;-84
2022/01/22 05:25:15;;;;;;;;;;;;;;;;;;5085348;28;21306;-85
2022/01/22 05:30:47;;;;;;;;;;;;;;;;;;5084564;28;19956;-86
2022/01/22 05:38:22;;;;;;;;;;;;;;;;;;5069876;28;20407;-86
2022/01/22 05:40:49;;;;;;;;;;;;;;;;;;5088802;28;20009;-86
2022/01/22 05:43:15;;;;;;;;;;;;;;;;;;5090760;28;20728;-86
2022/01/22 05:45:41;;;;;;;;;;;;;;;;;;5072796;28;19977;-88
2022/01/22 05:48:07;;;;;;;;;;;;;;;;;;5090210;28;19947;-87
2022/01/22 05:50:48;;;;;;;;;;;;;;;;;;5072152;28;19959;-88
2022/01/22 05:53:47;;;;;;;;;;;;;;;;;;5085818;28;19971;-88
2022/01/22 06:01:18;;;;;;;;;;;;;;;;;;5088040;28;21589;-85
2022/01/22 06:03:44;;;;;;;;;;;;;;;;;;5069596;28;20004;-86
2022/01/22 06:06:11;;;;;;;;;;;;;;;;;;5081205;28;19916;-86
2022/01/22 06:08:51;;;;;;;;;;;;;;;;;;5086315;28;19963;-85
2022/01/22 06:11:23;;;;;;;;;;;;;;;;;;5083217;28;19970;-86
2022/01/22 06:13:49;;;;;;;;;;;;;;;;;;5088790;28;19964;-86
2022/01/22 06:16:16;;;;;;;;;;;;;;;;;;5087563;28;20048;-86
2022/01/22 06:18:42;;;;;;;;;;;;;;;;;;5088886;28;19948;-88
2022/01/22 06:21:11;;;;;;;;;;;;;;;;;;5087792;28;19962;-89
2022/01/22 06:23:37;;;;;;;;;;;;;;;;;;5085812;28;20340;-87
2022/01/22 06:26:03;;;;;;;;;;;;;;;;;;5088104;28;20001;-88
2022/01/22 06:28:29;;;;;;;;;;;;;;;;;;5084728;28;20391;-85
2022/01/22 06:30:56;;;;;;;;;;;;;;;;;;5082984;28;19967;-84
2022/01/22 06:33:22;;;;;;;;;;;;;;;;;;5084572;28;19948;-86
2022/01/22 06:35:48;;;;;;;;;;;;;;;;;;5083585;28;19952;-87
2022/01/22 06:38:14;;;;;;;;;;;;;;;;;;5085928;28;19963;-85
2022/01/22 06:43:07;;;;;;;;;;;;;;;;;;5087875;28;19959;-87
2022/01/22 06:45:33;;;;;;;;;;;;;;;;;;5086917;28;20367;-87
2022/01/22 06:47:59;;;;;;;;;;;;;;;;;;5088840;28;19947;-87
2022/01/22 06:50:25;;;;;;;;;;;;;;;;;;5087268;28;19971;-88
2022/01/22 06:52:56;;;;;;;;;;;;;;;;;;5087291;28;20355;-87
2022/01/22 06:55:28;;;;;;;;;;;;;;;;;;5088134;28;19959;-87
2022/01/22 06:57:55;;;;;;;;;;;;;;;;;;5088469;28;19971;-85
2022/01/22 07:00:21;;;;;;;;;;;;;;;;;;5086742;28;20017;-85
2022/01/22 07:02:47;;;;;;;;;;;;;;;;;;5088265;28;19967;-85
2022/01/22 07:05:13;;;;;;;;;;;;;;;;;;5086113;28;20583;-88
2022/01/22 07:07:39;;;;;;;;;;;;;;;;;;5086258;28;19970;-85
2022/01/22 07:10:05;;;;;;;;;;;;;;;;;;5079767;28;20391;-84
2022/01/22 07:12:32;;;;;;;;;;;;;;;;;;5084865;28;19951;-86
2022/01/22 07:14:58;;;;;;;;;;;;;;;;;;5082309;28;19959;-86
2022/01/22 07:17:24;;;;;;;;;;;;;;;;;;5089238;28;20426;-86
2022/01/22 07:19:52;;;;;;;;;;;;;;;;;;5082402;28;19963;-85
2022/01/22 07:22:33;;;;;;;;;;;;;;;;;;5085323;28;19951;-86
2022/01/22 07:24:59;;;;;;;;;;;;;;;;;;5086262;28;20584;-87
2022/01/22 07:27:25;;;;;;;;;;;;;;;;;;5080723;28;19955;-87
2022/01/22 07:29:51;;;;;;;;;;;;;;;;;;5085045;28;19974;-86
2022/01/22 07:32:27;;;;;;;;;;;;;;;;;;5087540;28;19916;-85
2022/01/22 07:34:53;;;;;;;;;;;;;;;;;;5085563;28;19955;-87
2022/01/22 07:37:20;;;;;;;;;;;;;;;;;;5089196;28;19958;-86
2022/01/22 07:39:46;;;;;;;;;;;;;;;;;;5084204;28;19981;-86
2022/01/22 07:42:12;;;;;;;;;;;;;;;;;;5082428;28;20399;-85
2022/01/22 07:44:38;;;;;;;;;;;;;;;;;;5087882;28;19963;-87
2022/01/22 07:47:05;;;;;;;;;;;;;;;;;;5088663;28;20463;-88
2022/01/22 07:49:31;;;;;;;;;;;;;;;;;;5089048;28;19944;-88
2022/01/22 07:51:57;;;;;;;;;;;;;;;;;;5072711;28;19962;-89
2022/01/22 07:54:24;;;;;;;;;;;;;;;;;;5087078;28;19955;-86
2022/01/22 07:56:50;;;;;;;;;;;;;;;;;;5087012;28;19956;-89
2022/01/22 07:59:17;;;;;;;;;;;;;;;;;;5089526;28;20742;-84
2022/01/22 08:01:43;;;;;;;;;;;;;;;;;;5065678;28;19971;-88
2022/01/22 08:04:09;;;;;;;;;;;;;;;;;;5081802;28;19960;-84
2022/01/22 08:06:35;;;;;;;;;;;;;;;;;;5084032;28;20009;-83
2022/01/22 08:09:01;;;;;;;;;;;;;;;;;;5086120;28;19952;-83
2022/01/22 08:11:28;;;;;;;;;;;;;;;;;;5086967;28;19985;-84
2022/01/22 08:13:54;;;;;;;;;;;;;;;;;;5086740;28;19971;-86
2022/01/22 08:16:20;;;;;;;;;;;;;;;;;;5068740;28;19932;-86
2022/01/22 08:18:46;;;;;;;;;;;;;;;;;;5067830;28;19951;-86
2022/01/22 08:21:12;;;;;;;;;;;;;;;;;;5085864;28;20004;-86
2022/01/22 08:23:39;;;;;;;;;;;;;;;;;;5066298;28;19960;-86
2022/01/22 08:26:09;;;;;;;;;;;;;;;;;;5085725;28;19948;-85
2022/01/22 08:28:53;;;;;;;;;;;;;;;;;;5082347;28;19956;-80
2022/01/22 08:36:42;;;;;;;;;;;;;;;;;;5084531;28;19951;-86
2022/01/22 08:39:08;;;;;;;;;;;;;;;;;;5084117;28;19989;-87
2022/01/22 08:41:34;;;;;;;;;;;;;;;;;;5069614;28;20341;-86
2022/01/22 08:44:01;;;;;;;;;;;;;;;;;;5067375;28;20444;-87
2022/01/22 08:46:27;;;;;;;;;;;;;;;;;;5085668;28;20018;-87
2022/01/22 08:48:53;;;;;;;;;;;;;;;;;;5084981;28;20030;-84
2022/01/22 08:51:19;;;;;;;;;;;;;;;;;;5085788;28;20060;-86
2022/01/22 08:53:46;;;;;;;;;;;;;;;;;;5083963;28;19955;-87
2022/01/22 08:56:12;;;;;;;;;;;;;;;;;;5064806;28;20339;-87
2022/01/22 08:58:38;;;;;;;;;;;;;;;;;;5084681;28;19920;-87
2022/01/22 09:01:05;;;;;;;;;;;;;;;;;;5088434;28;19955;-88
2022/01/22 09:03:31;;;;;;;;;;;;;;;;;;5084841;28;19967;-87
2022/01/22 09:05:57;;;;;;;;;;;;;;;;;;5083834;28;19951;-86
2022/01/22 09:08:24;;;;;;;;;;;;;;;;;;5084427;28;20545;-86
2022/01/22 09:10:52;;;;;;;;;;;;;;;;;;5085656;28;20352;-88
2022/01/22 09:13:18;;;;;;;;;;;;;;;;;;5085837;28;20390;-87
2022/01/22 09:15:44;;;;;;;;;;;;;;;;;;5063537;28;19971;-86
2022/01/22 09:18:11;;;;;;;;;;;;;;;;;;5085109;28;19951;-86
2022/01/22 09:23:03;;;;;;;;;;;;;;;;;;5081358;28;19970;-88
2022/01/22 09:25:29;;;;;;;;;;;;;;;;;;5086475;28;20120;-87
2022/01/22 09:27:55;;;;;;;;;;;;;;;;;;5084401;28;19959;-84
2022/01/22 09:30:22;;;;;;;;;;;;;;;;;;5085219;28;19983;-86
2022/01/22 09:32:48;;;;;;;;;;;;;;;;;;5064773;28;19949;-84
2022/01/22 09:35:14;;;;;;;;;;;;;;;;;;5084557;28;19967;-77
2022/01/22 09:37:40;;;;;;;;;;;;;;;;;;5089445;28;19948;-78
2022/01/22 09:40:06;;;;;;;;;;;;;;;;;;5078140;28;19964;-82
2022/01/22 09:42:32;;;;;;;;;;;;;;;;;;5062227;28;20590;-82
2022/01/22 09:44:59;;;;;;;;;;;;;;;;;;5079313;28;19970;-82
2022/01/22 09:47:25;;;;;;;;;;;;;;;;;;5088935;28;19956;-84
2022/01/22 09:49:51;;;;;;;;;;;;;;;;;;5063944;28;20603;-83
2022/01/22 09:52:17;;;;;;;;;;;;;;;;;;5081678;28;19959;-83
2022/01/22 09:54:43;;;;;;;;;;;;;;;;;;5081105;28;19971;-83
2022/01/22 09:57:10;;;;;;;;;;;;;;;;;;5081982;28;19947;-82
2022/01/22 09:59:36;;;;;;;;;;;;;;;;;;5082343;28;19958;-82
2022/01/22 10:02:02;;;;;;;;;;;;;;;;;;5063523;28;19959;-83
2022/01/22 10:04:28;;;;;;;;;;;;;;;;;;5082242;28;19967;-84
2022/01/22 10:06:55;;;;;;;;;;;;;;;;;;5084299;28;19971;-83
2022/01/22 10:09:33;;;;;;;;;;;;;;;;;;5083135;28;19951;-83
2022/01/22 10:11:59;;;;;;;;;;;;;;;;;;5086478;28;19964;-83
2022/01/22 10:14:26;;;;;;;;;;;;;;;;;;5082170;28;19959;-84
2022/01/22 10:16:52;;;;;;;;;;;;;;;;;;5083659;28;19963;-82
2022/01/22 10:19:18;;;;;;;;;;;;;;;;;;5087406;28;20395;-82
2022/01/22 10:21:44;;;;;;;;;;;;;;;;;;5082178;28;19956;-82
2022/01/22 10:24:10;;;;;;;;;;;;;;;;;;5088252;28;20690;-83
2022/01/22 10:26:36;;;;;;;;;;;;;;;;;;5083136;28;19944;-81
2022/01/22 10:29:03;;;;;;;;;;;;;;;;;;5088788;28;19959;-82
2022/01/22 10:31:32;;;;;;;;;;;;;;;;;;5090844;28;19967;-84
2022/01/22 10:33:58;;;;;;;;;;;;;;;;;;5086392;28;19955;-82
2022/01/22 10:36:24;;;;;;;;;;;;;;;;;;5072731;28;19994;-83
2022/01/22 10:38:50;;;;;;;;;;;;;;;;;;5069685;28;19950;-82
2022/01/22 10:41:16;;;;;;;;;;;;;;;;;;5065346;28;19960;-82
2022/01/22 10:43:43;;;;;;;;;;;;;;;;;;5081086;28;19952;-81
2022/01/22 10:46:19;;;;;;;;;;;;;;;;;;5062784;28;19964;-81
2022/01/22 10:48:46;;;;;;;;;;;;;;;;;;5069338;28;20448;-80
2022/01/22 10:51:12;;;;;;;;;;;;;;;;;;5086018;28;19997;-82
2022/01/22 10:53:38;;;;;;;;;;;;;;;;;;5090177;28;19944;-84
2022/01/22 10:56:05;;;;;;;;;;;;;;;;;;5087111;28;19970;-81
2022/01/22 10:58:31;;;;;;;;;;;;;;;;;;5085495;28;20004;-82
2022/01/22 11:00:58;;;;;;;;;;;;;;;;;;5086303;28;19956;-82
2022/01/22 11:03:26;;;;;;;;;;;;;;;;;;5088011;28;20019;-83
2022/01/22 11:05:52;;;;;;;;;;;;;;;;;;5088623;28;19959;-83
2022/01/22 11:08:18;;;;;;;;;;;;;;;;;;5086543;28;19951;-83
2022/01/22 11:10:44;;;;;;;;;;;;;;;;;;5067610;28;19955;-83
2022/01/22 11:13:11;;;;;;;;;;;;;;;;;;5084924;28;20026;-83
2022/01/22 11:15:37;;;;;;;;;;;;;;;;;;5083440;28;19970;-81
2022/01/22 11:18:03;;;;;;;;;;;;;;;;;;5083642;28;19974;-82
2022/01/22 11:20:29;;;;;;;;;;;;;;;;;;5074047;28;19955;-83
2022/01/22 11:22:55;;;;;;;;;;;;;;;;;;5085564;28;19923;-82
2022/01/22 11:25:22;;;;;;;;;;;;;;;;;;5086664;28;19968;-82
2022/01/22 11:27:48;;;;;;;;;;;;;;;;;;5083600;28;20030;-84
2022/01/22 11:30:14;;;;;;;;;;;;;;;;;;5087326;28;19971;-83
2022/01/22 11:32:40;;;;;;;;;;;;;;;;;;5056247;28;19984;-84
2022/01/22 11:35:06;;;;;;;;;;;;;;;;;;5082099;28;20440;-82
2022/01/22 11:37:33;;;;;;;;;;;;;;;;;;5085383;28;20021;-82
2022/01/22 11:39:59;;;;;;;;;;;;;;;;;;5086541;28;19959;-81
2022/01/22 11:42:25;;;;;;;;;;;;;;;;;;5086758;28;20383;-81
2022/01/22 11:45:02;;;;;;;;;;;;;;;;;;5086433;28;19963;-82
2022/01/22 11:47:28;;;;;;;;;;;;;;;;;;5087026;28;20372;-83
2022/01/22 11:49:54;;;;;;;;;;;;;;;;;;5066675;28;20608;-83
2022/01/22 11:52:25;;;;;;;;;;;;;;;;;;5091670;28;20012;-82
2022/01/22 11:54:51;;;;;;;;;;;;;;;;;;5050371;28;20013;-82
2022/01/22 11:57:18;;;;;;;;;;;;;;;;;;5068930;28;19959;-83
2022/01/22 11:59:46;;;;;;;;;;;;;;;;;;5089310;28;19959;-82
2022/01/22 12:02:12;;;;;;;;;;;;;;;;;;5088184;28;19962;-81
2022/01/22 12:04:38;;;;;;;;;;;;;;;;;;5084876;28;19947;-83
2022/01/22 12:07:04;;;;;;;;;;;;;;;;;;5065323;28;19964;-81
2022/01/22 12:09:32;;;;;;;;;;;;;;;;;;5083418;28;19951;-83
2022/01/22 12:14:43;;;;;;;;;;;;;;;;;;5087445;28;20667;-81
2022/01/22 12:17:14;;;;;;;;;;;;;;;;;;5089434;28;19968;-82
2022/01/22 12:19:51;;;;;;;;;;;;;;;;;;5085897;28;20000;-82
2022/01/22 12:22:17;;;;;;;;;;;;;;;;;;5082922;28;20402;-82
2022/01/22 12:24:44;;;;;;;;;;;;;;;;;;5085927;28;19963;-81
2022/01/22 12:27:10;;;;;;;;;;;;;;;;;;5084492;28;20379;-82
2022/01/22 12:29:36;;;;;;;;;;;;;;;;;;5087538;28;19966;-82
2022/01/22 12:32:02;;;;;;;;;;;;;;;;;;5083969;28;20376;-81
2022/01/22 12:34:28;;;;;;;;;;;;;;;;;;5085134;28;19962;-82
2022/01/22 12:36:56;;;;;;;;;;;;;;;;;;5066072;28;19974;-82
2022/01/22 12:39:28;;;;;;;;;;;;;;;;;;5086258;28;19955;-81
2022/01/22 12:41:57;;;;;;;;;;;;;;;;;;5083744;28;19959;-82
2022/01/22 12:44:33;;;;;;;;;;;;;;;;;;5067899;28;19996;-79
2022/01/22 12:46:59;;;;;;;;;;;;;;;;;;5049479;28;20005;-77
2022/01/22 12:49:25;;;;;;;;;;;;;;;;;;5080344;28;19990;-77
2022/01/22 12:51:51;;;;;;;;;;;;;;;;;;5080802;28;19955;-78
2022/01/22 12:54:18;;;;;;;;;;;;;;;;;;5082381;28;19963;-78
2022/01/22 12:56:51;;;;;;;;;;;;;;;;;;5081884;28;20384;-77
2022/01/22 12:59:17;;;;;;;;;;;;;;;;;;5084164;28;20357;-78
2022/01/22 13:01:43;;;;;;;;;;;;;;;;;;5082998;28;19970;-77
2022/01/22 13:04:09;;;;;;;;;;;;;;;;;;5085434;28;20004;-77
2022/01/22 13:06:35;;;;;;;;;;;;;;;;;;5085531;28;19955;-77
2022/01/22 13:09:02;;;;;;;;;;;;;;;;;;5063818;28;19977;-77
2022/01/22 13:11:28;;;;;;;;;;;;;;;;;;5082324;28;19983;-78
2022/01/22 13:13:55;;;;;;;;;;;;;;;;;;5082037;28;19963;-77
2022/01/22 13:16:21;;;;;;;;;;;;;;;;;;5083782;28;20376;-77
2022/01/22 13:18:50;;;;;;;;;;;;;;;;;;5082804;28;20554;-76
2022/01/22 13:21:16;;;;;;;;;;;;;;;;;;5083754;28;20443;-77
2022/01/22 13:23:42;;;;;;;;;;;;;;;;;;5086644;28;20360;-77
2022/01/22 13:26:08;;;;;;;;;;;;;;;;;;5083468;28;20383;-79
2022/01/22 13:28:36;;;;;;;;;;;;;;;;;;5083082;28;19927;-78
2022/01/22 13:31:07;;;;;;;;;;;;;;;;;;5064145;28;19924;-77
2022/01/22 13:34:01;;;;;;;;;;;;;;;;;;5084662;28;20666;-79
2022/01/22 13:36:54;;;;;;;;;;;;;;;;;;5060579;28;20451;-78
2022/01/22 13:39:39;;;;;;;;;;;;;;;;;;5063304;28;20564;-77
2022/01/22 13:45:24;;;;;;;;;;;;;;;;;;5071080;28;19947;-79
2022/01/22 13:47:50;;;;;;;;;;;;;;;;;;5058506;28;19997;-78
2022/01/22 13:50:17;;;;;;;;;;;;;;;;;;5075634;28;20379;-78
2022/01/22 13:52:44;;;;;;;;;;;;;;;;;;5080491;28;20051;-82
2022/01/22 13:55:10;;;;;;;;;;;;;;;;;;5083475;28;19944;-81
2022/01/22 13:57:36;;;;;;;;;;;;;;;;;;5066499;28;20360;-83
2022/01/22 14:00:02;;;;;;;;;;;;;;;;;;5064235;28;19955;-84
2022/01/22 14:02:49;;;;;;;;;;;;;;;;;;5067520;28;20875;-83
2022/01/22 14:05:15;;;;;;;;;;;;;;;;;;5066119;28;21244;-83
2022/01/22 14:07:45;;;;;;;;;;;;;;;;;;5076683;28;19958;-83
2022/01/22 14:10:12;;;;;;;;;;;;;;;;;;5070733;28;20328;-82
2022/01/22 14:12:41;;;;;;;;;;;;;;;;;;5055685;28;20001;-81
2022/01/22 14:15:09;;;;;;;;;;;;;;;;;;5087345;28;19955;-82
2022/01/22 14:17:47;;;;;;;;;;;;;;;;;;5051100;28;19972;-82
2022/01/22 14:20:13;;;;;;;;;;;;;;;;;;5082962;28;22185;-82
2022/01/22 14:22:39;;;;;;;;;;;;;;;;;;5087307;28;19959;-82
2022/01/22 14:25:05;;;;;;;;;;;;;;;;;;5069209;28;19956;-83
2022/01/22 14:27:32;;;;;;;;;;;;;;;;;;5083726;28;20017;-82
2022/01/22 14:29:58;;;;;;;;;;;;;;;;;;5065235;28;20008;-83
2022/01/22 14:32:24;;;;;;;;;;;;;;;;;;5088640;28;20398;-83
2022/01/22 14:34:52;;;;;;;;;;;;;;;;;;5087407;28;19970;-82
2022/01/22 14:37:18;;;;;;;;;;;;;;;;;;5088040;28;19962;-82
2022/01/22 14:45:14;;;;;;;;;;;;;;;;;;5086930;28;22205;-83
2022/01/22 14:47:40;;;;;;;;;;;;;;;;;;5087560;28;19954;-82
2022/01/22 14:50:06;;;;;;;;;;;;;;;;;;5086148;28;20437;-83
2022/01/22 14:52:32;;;;;;;;;;;;;;;;;;5085886;28;20023;-83
2022/01/22 14:54:58;;;;;;;;;;;;;;;;;;5085819;28;20433;-83
2022/01/22 14:57:25;;;;;;;;;;;;;;;;;;5070689;28;20000;-83
2022/01/22 14:59:51;;;;;;;;;;;;;;;;;;5091285;28;19970;-83
2022/01/22 15:02:17;;;;;;;;;;;;;;;;;;5088993;28;19951;-83
2022/01/22 15:04:43;;;;;;;;;;;;;;;;;;5082793;28;19916;-82
2022/01/22 15:07:09;;;;;;;;;;;;;;;;;;5087175;28;20041;-83
2022/01/22 15:09:35;;;;;;;;;;;;;;;;;;5087717;28;20362;-82
2022/01/22 15:12:07;;;;;;;;;;;;;;;;;;5086137;28;19956;-82
2022/01/22 15:14:33;;;;;;;;;;;;;;;;;;5086355;28;19951;-80
2022/01/22 15:19:35;;;;;;;;;;;;;;;;;;5087057;28;19955;-81
2022/01/22 15:22:01;;;;;;;;;;;;;;;;;;5090504;28;19962;-83
2022/01/22 15:24:27;;;;;;;;;;;;;;;;;;5085009;28;19981;-83
2022/01/22 15:27:02;;;;;;;;;;;;;;;;;;5087643;28;19916;-84
2022/01/22 15:29:29;;;;;;;;;;;;;;;;;;5087852;28;19948;-84
2022/01/22 15:36:57;;;;;;;;;;;;;;;;;;5087098;28;20091;-83
2022/01/22 15:39:23;;;;;;;;;;;;;;;;;;5087527;28;20385;-83
2022/01/22 15:41:49;;;;;;;;;;;;;;;;;;5082619;28;19920;-82
2022/01/22 15:44:15;;;;;;;;;;;;;;;;;;5064144;28;19960;-84
2022/01/22 15:46:42;;;;;;;;;;;;;;;;;;5078396;28;20367;-81
2022/01/22 15:49:08;;;;;;;;;;;;;;;;;;5067096;28;19951;-83
2022/01/22 15:51:34;;;;;;;;;;;;;;;;;;5065102;28;19962;-82
2022/01/22 15:54:00;;;;;;;;;;;;;;;;;;5084495;28;19982;-82
2022/01/22 15:56:27;;;;;;;;;;;;;;;;;;5087686;28;19924;-81
2022/01/22 15:58:53;;;;;;;;;;;;;;;;;;5073302;28;19951;-82
2022/01/22 16:01:19;;;;;;;;;;;;;;;;;;5051294;28;19951;-82
2022/01/22 16:03:54;;;;;;;;;;;;;;;;;;5085241;28;19951;-82
2022/01/22 16:06:22;;;;;;;;;;;;;;;;;;5068679;28;19950;-81
2022/01/22 16:08:48;;;;;;;;;;;;;;;;;;5083289;28;19959;-81
2022/01/22 16:11:14;;;;;;;;;;;;;;;;;;5086756;28;19971;-81
2022/01/22 16:13:44;;;;;;;;;;;;;;;;;;5069119;28;20040;-83
2022/01/22 16:16:10;;;;;;;;;;;;;;;;;;5084529;28;19956;-82
2022/01/22 16:18:36;;;;;;;;;;;;;;;;;;5087215;28;19955;-82
2022/01/22 16:21:02;;;;;;;;;;;;;;;;;;5084962;28;21296;-82
2022/01/22 16:23:29;;;;;;;;;;;;;;;;;;5061908;28;19992;-83
2022/01/22 16:25:56;;;;;;;;;;;;;;;;;;5068081;28;19951;-82
2022/01/22 16:28:22;;;;;;;;;;;;;;;;;;5086628;28;19923;-82
2022/01/22 16:30:48;;;;;;;;;;;;;;;;;;5080951;28;19958;-84
2022/01/22 16:33:15;;;;;;;;;;;;;;;;;;5085321;28;19962;-83
2022/01/22 16:35:41;;;;;;;;;;;;;;;;;;5063051;28;19970;-83
2022/01/22 16:38:07;;;;;;;;;;;;;;;;;;5086085;28;20316;-82
2022/01/22 16:40:33;;;;;;;;;;;;;;;;;;5069350;28;19981;-81
2022/01/22 16:43:03;;;;;;;;;;;;;;;;;;5064147;28;19993;-83
2022/01/22 16:56:06;;;;;;;;;;;;;;;;;;5084088;28;20449;-81
2022/01/22 16:58:36;;;;;;;;;;;;;;;;;;5084741;28;19955;-82
2022/01/22 17:01:04;;;;;;;;;;;;;;;;;;5067223;28;21478;-83
2022/01/22 17:03:32;;;;;;;;;;;;;;;;;;5086965;28;19928;-82
2022/01/22 17:06:00;;;;;;;;;;;;;;;;;;5082249;28;19997;-82
2022/01/22 17:08:33;;;;;;;;;;;;;;;;;;5082987;28;19956;-85
2022/01/22 17:11:07;;;;;;;;;;;;;;;;;;5083768;28;19964;-83
2022/01/22 17:16:19;;;;;;;;;;;;;;;;;;5082451;28;19924;-83
2022/01/22 17:18:45;;;;;;;;;;;;;;;;;;5082626;28;19955;-83
2022/01/22 17:21:11;;;;;;;;;;;;;;;;;;5086788;28;19935;-82
2022/01/22 17:23:37;;;;;;;;;;;;;;;;;;5083900;28;19947;-83
2022/01/22 17:26:03;;;;;;;;;;;;;;;;;;5077360;28;22303;-84
2022/01/22 17:28:30;;;;;;;;;;;;;;;;;;5083267;28;19975;-84
2022/01/22 17:30:56;;;;;;;;;;;;;;;;;;5084897;28;20195;-84
2022/01/22 17:33:22;;;;;;;;;;;;;;;;;;5081180;28;19967;-84
2022/01/22 17:35:49;;;;;;;;;;;;;;;;;;5062145;28;20616;-83
2022/01/22 17:38:15;;;;;;;;;;;;;;;;;;5090338;28;19975;-83
2022/01/22 17:40:41;;;;;;;;;;;;;;;;;;5089199;28;19962;-83
2022/01/22 17:43:09;;;;;;;;;;;;;;;;;;5093716;28;19952;-82
2022/01/22 17:45:36;;;;;;;;;;;;;;;;;;5084865;28;19959;-80
2022/01/22 17:48:02;;;;;;;;;;;;;;;;;;5083595;28;19964;-80
2022/01/22 17:50:28;;;;;;;;;;;;;;;;;;5067046;28;19943;-79
2022/01/22 17:52:54;;;;;;;;;;;;;;;;;;5084217;28;19936;-81
2022/01/22 17:55:22;;;;;;;;;;;;;;;;;;5085885;28;20449;-74
2022/01/22 17:57:48;;;;;;;;;;;;;;;;;;5083561;28;19951;-74
2022/01/22 18:00:14;;;;;;;;;;;;;;;;;;5089593;28;19932;-74
2022/01/22 18:02:41;;;;;;;;;;;;;;;;;;5083109;28;19948;-74
2022/01/22 18:05:07;;;;;;;;;;;;;;;;;;5087226;28;19952;-74
2022/01/22 18:07:33;;;;;;;;;;;;;;;;;;5090308;28;19958;-73
2022/01/22 18:10:00;;;;;;;;;;;;;;;;;;5087558;28;19960;-74
2022/01/22 18:12:26;;;;;;;;;;;;;;;;;;5088351;28;19951;-74
2022/01/22 18:14:52;;;;;;;;;;;;;;;;;;5070989;28;19985;-75
2022/01/22 18:17:18;;;;;;;;;;;;;;;;;;5089409;28;19963;-75
2022/01/22 18:19:44;;;;;;;;;;;;;;;;;;5085982;28;19955;-75
2022/01/22 18:22:11;;;;;;;;;;;;;;;;;;5087008;28;20026;-74
2022/01/22 18:24:37;;;;;;;;;;;;;;;;;;5087161;28;19959;-74
2022/01/22 18:27:03;;;;;;;;;;;;;;;;;;5066575;28;19978;-75
2022/01/22 18:29:29;;;;;;;;;;;;;;;;;;5086395;28;19920;-74
2022/01/22 18:31:56;;;;;;;;;;;;;;;;;;5086029;28;19959;-76
2022/01/22 18:34:26;;;;;;;;;;;;;;;;;;5085978;28;20373;-77
2022/01/22 18:36:53;;;;;;;;;;;;;;;;;;5067703;28;19926;-77
2022/01/22 18:39:19;;;;;;;;;;;;;;;;;;5089676;28;19963;-77
2022/01/22 18:41:48;;;;;;;;;;;;;;;;;;5085312;28;19959;-75
2022/01/22 18:44:15;;;;;;;;;;;;;;;;;;5090826;28;19964;-76
2022/01/22 18:46:41;;;;;;;;;;;;;;;;;;5086757;28;19962;-77
2022/01/22 18:49:08;;;;;;;;;;;;;;;;;;5084716;28;19955;-76
2022/01/22 18:51:34;;;;;;;;;;;;;;;;;;5084248;28;19967;-76
2022/01/22 18:54:00;;;;;;;;;;;;;;;;;;5086388;28;20400;-76